This is the latest recevied weather packets stored in our database for station/object DG5TS-10. If no packets are shown the sender has not sent any weather packets the latest 10 day(s).
| Time | Temp. | Humidity | Pressure | Rain* | Wind** | Luminosity | Snow |
|---|---|---|---|---|---|---|---|
| 1778072465 | 19.44° C | 38% | 1007.7 hPa | - | - | - | - |
| 1778071561 | 20.56° C | 37% | 1007.5 hPa | - | - | - | - |
| 1778070661 | 22.78° C | 34% | 1007.4 hPa | - | - | - | - |
| 1778069761 | 22.22° C | 34% | 1007.5 hPa | - | - | - | - |
| 1778068861 | 21.67° C | 35% | 1007.4 hPa | - | - | - | - |
| 1778067961 | 21.11° C | 36% | 1007.4 hPa | - | - | - | - |
| 1778067066 | 20.56° C | 35% | 1007.3 hPa | - | - | - | - |
| 1778066011 | 20.56° C | 36% | 1007.4 hPa | - | - | - | - |
| 1778064956 | 21.67° C | 35% | 1007.4 hPa | - | - | - | - |
| 1778063900 | 23.89° C | 32% | 1007.3 hPa | - | - | - | - |
| 1778062846 | 22.22° C | 34% | 1007.4 hPa | - | - | - | - |
| 1778061790 | 21.11° C | 36% | 1007.3 hPa | - | - | - | - |
| 1778060736 | 20.56° C | 37% | 1007.2 hPa | - | - | - | - |
| 1778058625 | 20° C | 38% | 1007.1 hPa | - | - | - | - |
| 1778057570 | 19.44° C | 37% | 1007.1 hPa | - | - | - | - |
| 1778056515 | 18.33° C | 40% | 1007 hPa | - | - | - | - |
| 1778055460 | 17.78° C | 40% | 1006.9 hPa | - | - | - | - |
| 1778054405 | 17.22° C | 42% | 1006.9 hPa | - | - | - | - |
| 1778053349 | 17.78° C | 41% | 1006.8 hPa | - | - | - | - |
| 1778052295 | 17.22° C | 42% | 1006.9 hPa | - | - | - | - |
| 1778051240 | 16.11° C | 43% | 1006.8 hPa | - | - | - | - |
| 1778050185 | 15.56° C | 44% | 1006.8 hPa | - | - | - | - |
| 1778049129 | 15.56° C | 45% | 1006.7 hPa | - | - | - | - |
| 1778048074 | 15.56° C | 45% | 1006.5 hPa | - | - | - | - |
| 1778047019 | 15° C | 46% | 1006.6 hPa | - | - | - | - |
* Rain since midnight (hover to see other rain measurements)
** Current wind speed in m/s (hover to see current wind gust speed)